Time;durP1;ratioP1;P1;durP2;ratioP2;P2;SDS_P1;SDS_P2;PMS_P1;PMS_P2;Temp;Humidity;BMP_temperature;BMP_pressure;BME280_temperature;BME280_humidity;BME280_pressure;Samples;Min_cycle;Max_cycle;Signal;HPM_P1;HPM_P2
2021/01/17 00:00:16;;;;;;;61.63;23.60;;;;;;;-3.09;92.68;96887.09;5055918;28;20044;-66
2021/01/17 00:02:43;;;;;;;54.08;21.83;;;;;;;-3.04;92.44;96874.75;5055401;28;20616;-66
2021/01/17 00:05:13;;;;;;;54.60;21.73;;;;;;;-3.04;93.02;96872.88;5053535;28;20949;-67
2021/01/17 00:07:39;;;;;;;50.95;21.20;;;;;;;-2.96;92.97;96866.94;5059719;28;20036;-67
2021/01/17 00:10:16;;;;;;;49.42;21.23;;;;;;;-2.88;93.16;96870.94;5054462;28;20043;-66
2021/01/17 00:12:48;;;;;;;51.38;20.20;;;;;;;-2.77;92.71;96867.13;5040210;28;20041;-66
2021/01/17 00:15:15;;;;;;;55.63;20.60;;;;;;;-2.74;92.68;96852.34;5017154;28;20045;-67
2021/01/17 00:17:41;;;;;;;51.28;20.50;;;;;;;-2.67;92.51;96852.84;5045881;28;20043;-67
2021/01/17 00:20:15;;;;;;;53.70;21.05;;;;;;;-2.63;92.45;96853.09;5047107;28;20037;-65
2021/01/17 00:22:43;;;;;;;47.20;20.02;;;;;;;-2.92;92.69;96835.84;5052322;28;20039;-66
2021/01/17 00:25:11;;;;;;;51.75;20.63;;;;;;;-2.97;92.60;96832.38;5055977;28;20135;-68
2021/01/17 00:27:36;;;;;;;53.70;20.25;;;;;;;-2.83;92.98;96832.56;5052955;28;20047;-69
2021/01/17 00:30:06;;;;;;;49.28;19.88;;;;;;;-2.69;93.12;96828.19;5054194;28;20115;-65
2021/01/17 00:32:32;;;;;;;39.97;17.90;;;;;;;-2.45;93.03;96824.81;5044445;28;20045;-66
2021/01/17 00:34:58;;;;;;;41.08;17.40;;;;;;;-2.39;92.71;96818.34;5069469;28;20043;-67
2021/01/17 00:37:23;;;;;;;47.65;18.80;;;;;;;-2.53;93.01;96808.22;5054387;28;20128;-66
2021/01/17 00:39:48;;;;;;;52.00;18.98;;;;;;;-2.72;93.82;96805.44;5060225;28;20048;-67
2021/01/17 00:42:16;;;;;;;39.78;16.88;;;;;;;-2.53;94.12;96804.75;5037557;28;20397;-66
2021/01/17 00:44:42;;;;;;;43.75;17.95;;;;;;;-2.59;93.97;96789.78;5059234;28;20131;-65
2021/01/17 00:47:10;;;;;;;49.83;18.88;;;;;;;-2.74;94.65;96788.81;5032236;28;20044;-67
2021/01/17 00:49:35;;;;;;;42.17;18.42;;;;;;;-2.73;94.40;96774.31;5059343;28;20044;-65
2021/01/17 00:52:01;;;;;;;56.30;22.67;;;;;;;-2.85;94.36;96781.91;5060058;28;20123;-66
2021/01/17 00:54:27;;;;;;;53.50;21.48;;;;;;;-2.95;94.73;96782.78;5041563;28;20040;-67
2021/01/17 00:56:52;;;;;;;54.03;21.40;;;;;;;-2.90;94.29;96777.41;5075216;28;20046;-67
2021/01/17 00:59:18;;;;;;;59.40;25.33;;;;;;;-3.37;94.53;96767.19;5047402;28;20059;-65
2021/01/17 01:01:44;;;;;;;58.75;24.30;;;;;;;-3.37;94.71;96767.97;5057773;28;20728;-65
2021/01/17 01:04:14;;;;;;;56.78;23.15;;;;;;;-3.46;95.05;96758.94;5058738;28;20099;-67
2021/01/17 01:06:39;;;;;;;67.05;26.70;;;;;;;-3.50;96.07;96752.53;5055711;28;20037;-65
2021/01/17 01:09:07;;;;;;;63.60;25.95;;;;;;;-3.44;95.95;96750.63;5058293;28;20051;-67
2021/01/17 01:11:32;;;;;;;57.50;23.70;;;;;;;-3.29;96.05;96751.34;5060971;28;20045;-66
2021/01/17 01:13:57;;;;;;;61.13;25.17;;;;;;;-3.37;96.29;96746.56;5059097;28;20045;-66
2021/01/17 01:16:23;;;;;;;53.83;21.95;;;;;;;-3.20;96.59;96746.22;5045744;28;20265;-66
2021/01/17 01:18:48;;;;;;;42.72;18.13;;;;;;;-2.90;96.36;96736.38;5060594;28;20120;-65
2021/01/17 01:21:14;;;;;;;39.47;15.13;;;;;;;-2.61;96.61;96738.31;5055400;28;20068;-66
2021/01/17 01:23:42;;;;;;;35.05;13.93;;;;;;;-2.47;96.22;96728.53;5054391;28;20098;-65
2021/01/17 01:26:07;;;;;;;31.13;14.35;;;;;;;-2.35;96.20;96730.84;5033949;28;20455;-71
2021/01/17 01:28:33;;;;;;;35.35;14.23;;;;;;;-2.40;96.22;96728.22;5060067;28;20044;-67
2021/01/17 01:30:58;;;;;;;34.50;14.68;;;;;;;-2.37;96.23;96725.75;5058003;28;20040;-69
2021/01/17 01:33:24;;;;;;;29.77;12.68;;;;;;;-2.23;96.00;96719.72;5049333;28;20045;-67
2021/01/17 01:35:49;;;;;;;27.98;12.85;;;;;;;-2.17;95.25;96722.09;5061342;28;20642;-69
2021/01/17 01:38:16;;;;;;;47.63;19.85;;;;;;;-2.12;95.01;96723.94;5059649;28;20044;-71
2021/01/17 01:40:51;;;;;;;26.70;12.88;;;;;;;-2.29;94.96;96708.25;5057983;28;20036;-69
2021/01/17 01:43:21;;;;;;;24.05;11.70;;;;;;;-2.15;94.59;96711.06;5052574;28;20564;-69
2021/01/17 01:45:47;;;;;;;29.58;12.48;;;;;;;-2.20;94.85;96706.53;5058130;28;20081;-69
2021/01/17 01:48:13;;;;;;;28.73;13.07;;;;;;;-2.15;95.14;96700.34;5053200;28;20040;-70
2021/01/17 01:50:39;;;;;;;25.73;11.52;;;;;;;-2.12;95.22;96699.78;5052328;28;20048;-71
2021/01/17 01:53:05;;;;;;;27.30;12.15;;;;;;;-2.09;95.46;96699.19;5052434;28;20043;-70
2021/01/17 01:55:30;;;;;;;26.60;11.80;;;;;;;-1.98;95.49;96684.59;5056436;28;20056;-68
2021/01/17 01:58:03;;;;;;;23.50;10.75;;;;;;;-1.74;95.34;96681.09;5066155;28;20040;-70
2021/01/17 02:00:28;;;;;;;26.17;11.25;;;;;;;-1.66;95.15;96683.13;5052252;28;20115;-68
2021/01/17 02:02:54;;;;;;;24.58;12.18;;;;;;;-1.60;94.29;96683.88;5053885;28;20072;-69
2021/01/17 02:05:19;;;;;;;23.75;11.40;;;;;;;-1.62;94.13;96684.16;5055676;28;20052;-68
2021/01/17 02:08:12;;;;;;;30.33;14.50;;;;;;;-1.67;94.08;96676.16;5057537;28;20036;-69
2021/01/17 02:10:38;;;;;;;24.17;11.05;;;;;;;-1.67;93.25;96676.16;5056532;28;20052;-68
2021/01/17 02:13:16;;;;;;;25.88;10.30;;;;;;;-1.71;93.57;96667.09;5054928;28;20137;-65
2021/01/17 02:15:41;;;;;;;23.77;10.15;;;;;;;-1.79;93.65;96671.19;5056924;28;20062;-67
2021/01/17 02:18:08;;;;;;;22.23;11.10;;;;;;;-1.68;93.74;96671.88;5035521;28;20040;-68
2021/01/17 02:20:36;;;;;;;22.05;11.05;;;;;;;-1.61;93.12;96660.78;5031132;28;20431;-69
2021/01/17 02:23:01;;;;;;;24.15;11.93;;;;;;;-1.62;93.24;96660.00;5050690;28;20033;-64
2021/01/17 02:25:35;;;;;;;25.35;10.68;;;;;;;-1.77;93.97;96655.59;5066940;28;20059;-68
2021/01/17 02:28:04;;;;;;;28.35;11.52;;;;;;;-1.60;93.12;96648.97;5060874;28;20037;-68
2021/01/17 02:30:32;;;;;;;28.27;11.07;;;;;;;-1.78;93.33;96645.97;5052989;28;20061;-68
2021/01/17 02:33:01;;;;;;;22.05;10.55;;;;;;;-1.63;93.25;96644.97;5059177;28;20125;-68
2021/01/17 02:35:30;;;;;;;20.30;10.00;;;;;;;-1.55;93.15;96643.50;5053126;28;20044;-70
2021/01/17 02:38:14;;;;;;;20.70;9.88;;;;;;;-1.60;93.20;96632.84;5061266;28;20136;-69
2021/01/17 02:41:08;;;;;;;18.17;8.82;;;;;;;-1.62;93.14;96632.31;5042083;28;20098;-69
2021/01/17 02:43:34;;;;;;;21.00;10.15;;;;;;;-1.74;93.52;96635.44;5047172;28;20053;-71
2021/01/17 02:46:00;;;;;;;25.73;10.75;;;;;;;-1.80;93.87;96637.41;5042271;28;20102;-69
2021/01/17 02:48:25;;;;;;;21.08;9.68;;;;;;;-1.63;93.86;96638.78;5055202;28;20044;-68
2021/01/17 02:50:50;;;;;;;25.58;10.35;;;;;;;-1.56;93.30;96631.19;5059942;28;20043;-69
2021/01/17 02:53:31;;;;;;;23.90;11.45;;;;;;;-1.56;93.22;96637.34;5053449;28;20050;-69
2021/01/17 02:55:59;;;;;;;18.45;8.65;;;;;;;-1.48;92.74;96633.19;5060100;28;20032;-70
2021/01/17 02:58:26;;;;;;;23.65;9.95;;;;;;;-1.45;92.65;96629.16;5051577;28;20471;-67
2021/01/17 03:00:57;;;;;;;19.98;9.05;;;;;;;-1.48;92.66;96624.34;5080420;28;20117;-70
2021/01/17 03:03:35;;;;;;;24.42;9.98;;;;;;;-1.53;92.92;96625.22;5082731;28;20583;-70
2021/01/17 03:06:05;;;;;;;26.27;11.43;;;;;;;-1.70;93.36;96632.97;5084121;28;20231;-70
2021/01/17 03:08:30;;;;;;;20.88;9.60;;;;;;;-1.59;93.42;96629.84;5068809;28;20631;-70
2021/01/17 03:10:55;;;;;;;22.90;10.32;;;;;;;-1.69;93.89;96631.88;5055080;28;20044;-68
2021/01/17 03:13:22;;;;;;;22.27;10.15;;;;;;;-1.65;93.63;96638.28;5030998;28;20053;-69
2021/01/17 03:15:48;;;;;;;24.83;10.50;;;;;;;-1.68;93.58;96633.50;5020367;28;20041;-68
2021/01/17 03:18:14;;;;;;;23.65;11.10;;;;;;;-1.83;93.73;96632.59;5017111;28;20045;-70
2021/01/17 03:20:39;;;;;;;24.77;11.15;;;;;;;-1.93;94.90;96628.16;5030138;28;20101;-65
2021/01/17 03:23:05;;;;;;;24.48;11.18;;;;;;;-1.83;94.66;96637.97;5026838;28;20034;-68
2021/01/17 03:25:30;;;;;;;22.83;10.38;;;;;;;-1.79;94.57;96635.50;5027913;28;20119;-69
2021/01/17 03:27:55;;;;;;;26.48;11.38;;;;;;;-1.89;94.29;96627.56;5021535;28;20072;-69
2021/01/17 03:30:21;;;;;;;26.15;11.65;;;;;;;-1.84;94.54;96631.00;5001042;28;20049;-67
2021/01/17 03:32:46;;;;;;;26.08;11.20;;;;;;;-1.81;94.31;96637.69;5021313;28;20103;-68
2021/01/17 03:35:12;;;;;;;25.13;11.32;;;;;;;-1.88;94.57;96631.88;5017744;28;20060;-68
2021/01/17 03:37:37;;;;;;;24.23;10.85;;;;;;;-1.98;94.89;96633.59;5022105;28;20454;-70
2021/01/17 03:40:04;;;;;;;22.38;10.43;;;;;;;-1.89;94.44;96636.44;5017974;28;20578;-75
2021/01/17 03:42:30;;;;;;;24.38;10.63;;;;;;;-1.89;94.46;96632.94;5020342;28;20491;-67
2021/01/17 03:44:55;;;;;;;24.65;11.38;;;;;;;-1.95;94.55;96638.38;5021080;28;20064;-70
2021/01/17 03:47:20;;;;;;;25.17;11.07;;;;;;;-1.85;94.52;96634.78;5016837;28;20455;-66
2021/01/17 03:49:46;;;;;;;22.63;10.23;;;;;;;-1.85;94.90;96628.63;5022475;28;20042;-69
2021/01/17 03:52:11;;;;;;;23.88;10.63;;;;;;;-1.79;94.64;96630.94;5001333;28;20065;-65
2021/01/17 03:54:37;;;;;;;24.17;10.60;;;;;;;-1.73;94.55;96634.34;5021605;28;20562;-67
2021/01/17 03:57:02;;;;;;;25.40;11.43;;;;;;;-1.78;94.27;96635.22;5020505;28;20084;-71
2021/01/17 03:59:28;;;;;;;27.63;11.38;;;;;;;-1.74;94.50;96636.22;5018494;28;20053;-72
2021/01/17 04:01:53;;;;;;;25.52;11.23;;;;;;;-1.75;94.06;96633.84;5020896;28;20045;-68
2021/01/17 04:04:19;;;;;;;21.63;10.15;;;;;;;-1.77;94.17;96627.97;4998415;28;20057;-67
2021/01/17 04:06:44;;;;;;;26.85;12.38;;;;;;;-1.81;94.88;96625.03;5017815;28;20466;-69
2021/01/17 04:09:10;;;;;;;22.65;10.93;;;;;;;-1.77;94.40;96622.59;5031215;28;20048;-68
2021/01/17 04:11:35;;;;;;;27.92;11.43;;;;;;;-1.76;94.57;96624.19;5028072;28;20037;-68
2021/01/17 04:14:01;;;;;;;27.83;11.80;;;;;;;-1.71;94.56;96621.44;5006553;28;20042;-70
2021/01/17 04:16:26;;;;;;;30.52;13.63;;;;;;;-1.69;94.29;96621.13;5028508;28;20056;-66
2021/01/17 04:18:52;;;;;;;27.55;13.77;;;;;;;-1.79;94.65;96614.03;5003304;28;20144;-66
2021/01/17 04:21:17;;;;;;;28.55;13.30;;;;;;;-1.69;94.26;96618.44;4996922;28;20136;-68
2021/01/17 04:23:43;;;;;;;33.83;13.05;;;;;;;-1.73;94.49;96624.41;5020569;28;20388;-70
2021/01/17 04:26:09;;;;;;;33.97;13.75;;;;;;;-1.66;93.66;96607.13;5014804;28;20183;-68
2021/01/17 04:28:35;;;;;;;28.23;12.73;;;;;;;-1.63;93.78;96601.97;5020999;28;20045;-71
2021/01/17 04:31:01;;;;;;;28.30;12.70;;;;;;;-1.61;94.21;96607.88;5020484;28;20045;-67
2021/01/17 04:33:26;;;;;;;29.25;13.05;;;;;;;-1.64;93.89;96611.16;4998664;28;20037;-66
2021/01/17 04:35:52;;;;;;;30.55;12.85;;;;;;;-1.56;93.33;96597.03;5000297;28;20049;-67
2021/01/17 04:38:17;;;;;;;34.05;14.85;;;;;;;-1.61;93.67;96599.00;5008582;28;20037;-69
2021/01/17 04:40:43;;;;;;;28.95;13.20;;;;;;;-1.54;92.90;96594.88;5020813;28;20053;-66
2021/01/17 04:43:31;;;;;;;30.30;14.07;;;;;;;-1.59;93.35;96592.25;4997412;28;20372;-66
2021/01/17 04:46:01;;;;;;;29.95;13.77;;;;;;;-1.50;93.29;96596.97;5020884;28;20041;-67
2021/01/17 04:48:28;;;;;;;34.33;13.48;;;;;;;-1.52;93.43;96594.59;5015891;28;20102;-68
2021/01/17 04:51:04;;;;;;;31.95;14.35;;;;;;;-1.56;93.27;96596.25;5020559;28;20060;-65
2021/01/17 04:53:34;;;;;;;33.83;14.40;;;;;;;-1.70;93.56;96593.50;5019740;28;20033;-68
2021/01/17 04:56:16;;;;;;;30.38;13.68;;;;;;;-1.67;93.71;96582.19;5021117;28;20038;-69
2021/01/17 04:58:57;;;;;;;32.47;15.65;;;;;;;-1.50;93.98;96587.03;5020675;28;20096;-67
2021/01/17 05:01:47;;;;;;;33.15;14.95;;;;;;;-1.60;94.14;96593.34;5021477;28;20175;-67
2021/01/17 05:04:27;;;;;;;31.45;14.23;;;;;;;-1.65;94.43;96596.09;4995048;28;20072;-68
2021/01/17 05:06:57;;;;;;;34.22;14.77;;;;;;;-1.74;94.95;96597.84;5004983;28;20056;-67
2021/01/17 05:09:29;;;;;;;34.03;15.15;;;;;;;-1.73;95.17;96588.69;5015688;28;20907;-67
2021/01/17 05:11:56;;;;;;;31.92;14.38;;;;;;;-1.73;95.27;96596.75;4999652;28;20084;-66
2021/01/17 05:14:36;;;;;;;32.65;14.80;;;;;;;-1.75;95.52;96599.75;5014391;28;20046;-66
2021/01/17 05:17:02;;;;;;;34.38;14.65;;;;;;;-1.76;95.45;96592.75;5002031;28;20400;-66
2021/01/17 05:19:28;;;;;;;38.97;16.63;;;;;;;-1.74;95.34;96600.53;5015776;28;20041;-65
2021/01/17 05:21:56;;;;;;;36.17;15.75;;;;;;;-1.61;95.71;96599.00;5017790;28;20386;-66
2021/01/17 05:24:21;;;;;;;29.50;14.45;;;;;;;-1.57;95.83;96602.72;5014877;28;20040;-65
2021/01/17 05:26:54;;;;;;;34.03;15.02;;;;;;;-1.46;96.37;96598.81;5017990;28;20049;-69
2021/01/17 05:29:21;;;;;;;34.83;15.00;;;;;;;-1.70;95.46;96606.91;5009536;28;20045;-67
2021/01/17 05:31:55;;;;;;;38.50;16.05;;;;;;;-1.52;95.38;96604.53;5019110;28;20529;-67
2021/01/17 05:34:21;;;;;;;35.75;15.05;;;;;;;-1.55;95.12;96603.22;5014729;28;20047;-66
2021/01/17 05:36:46;;;;;;;37.55;16.30;;;;;;;-1.54;95.42;96608.28;5019198;28;20384;-67
2021/01/17 05:39:12;;;;;;;32.88;14.75;;;;;;;-1.56;95.11;96607.78;5014755;28;20037;-67
2021/01/17 05:41:38;;;;;;;34.97;15.85;;;;;;;-1.50;95.24;96605.03;5025033;28;20045;-67
2021/01/17 05:44:04;;;;;;;28.10;13.45;;;;;;;-1.43;94.87;96608.16;5019979;28;20375;-69
2021/01/17 05:46:29;;;;;;;36.53;14.98;;;;;;;-1.42;94.52;96615.94;5006769;28;20093;-67
2021/01/17 05:49:12;;;;;;;31.10;13.98;;;;;;;-1.45;94.51;96613.03;5019913;28;20044;-68
2021/01/17 05:51:38;;;;;;;31.27;14.55;;;;;;;-1.45;94.45;96613.81;5018248;28;20095;-67
2021/01/17 05:54:08;;;;;;;29.52;13.55;;;;;;;-1.46;93.96;96614.09;5016545;28;20530;-73
2021/01/17 05:56:35;;;;;;;30.30;14.48;;;;;;;-1.38;94.30;96618.84;5020150;28;20049;-72
2021/01/17 05:59:00;;;;;;;32.63;14.82;;;;;;;-1.26;94.17;96616.50;5019327;28;20487;-67
2021/01/17 06:01:27;;;;;;;30.65;12.98;;;;;;;-1.26;94.50;96624.56;5014851;28;20041;-67
2021/01/17 06:03:54;;;;;;;26.67;12.88;;;;;;;-1.28;93.99;96624.03;5018868;28;20375;-68
2021/01/17 06:06:30;;;;;;;32.08;13.95;;;;;;;-1.31;94.04;96627.31;5009819;28;20045;-68
2021/01/17 06:09:00;;;;;;;31.02;13.38;;;;;;;-1.31;93.56;96629.22;5019745;28;20071;-71
2021/01/17 06:11:27;;;;;;;30.02;13.05;;;;;;;-1.35;93.60;96627.13;5014221;28;20042;-70
2021/01/17 06:13:58;;;;;;;30.15;13.95;;;;;;;-1.35;93.40;96629.00;5016644;28;20045;-66
2021/01/17 06:16:42;;;;;;;27.17;13.05;;;;;;;-1.39;93.45;96633.34;5015117;28;20046;-67
2021/01/17 06:19:12;;;;;;;30.02;12.88;;;;;;;-1.43;93.61;96641.19;5015050;28;20045;-68
2021/01/17 06:21:38;;;;;;;27.80;13.65;;;;;;;-1.39;93.47;96650.28;5007349;28;20044;-75
2021/01/17 06:24:06;;;;;;;30.45;13.52;;;;;;;-1.33;94.02;96636.75;5035230;28;20021;-75
2021/01/17 06:26:34;;;;;;;29.90;14.73;;;;;;;-1.27;94.17;96638.28;5021381;28;20547;-66
2021/01/17 06:29:01;;;;;;;34.30;14.82;;;;;;;-1.26;93.85;96639.88;5019458;28;20119;-66
2021/01/17 06:31:28;;;;;;;33.42;14.70;;;;;;;-1.26;94.09;96635.31;5015112;28;20140;-67
2021/01/17 06:34:12;;;;;;;33.85;13.85;;;;;;;-1.50;93.39;96635.38;5018695;28;20233;-68
2021/01/17 06:36:40;;;;;;;29.88;13.35;;;;;;;-1.60;93.83;96641.69;5021977;28;20048;-67
2021/01/17 06:39:18;;;;;;;32.85;14.40;;;;;;;-1.81;94.42;96645.75;5020945;28;20253;-70
2021/01/17 06:41:43;;;;;;;33.60;13.85;;;;;;;-1.93;94.92;96646.97;5028309;28;20560;-70
2021/01/17 06:44:11;;;;;;;34.80;15.32;;;;;;;-2.01;96.07;96647.59;5016499;28;20046;-71
2021/01/17 06:46:39;;;;;;;36.08;16.05;;;;;;;-2.00;96.01;96641.13;5023581;28;20048;-70
2021/01/17 06:49:27;;;;;;;36.17;14.98;;;;;;;-2.01;96.06;96644.91;5023137;28;20044;-73
2021/01/17 06:51:54;;;;;;;36.85;15.55;;;;;;;-1.88;96.17;96654.13;5034974;28;20049;-70
2021/01/17 06:54:22;;;;;;;39.90;16.73;;;;;;;-1.76;96.04;96649.16;5028914;28;20038;-68
2021/01/17 06:56:49;;;;;;;33.65;15.90;;;;;;;-1.68;96.27;96649.59;5030926;28;20041;-70
2021/01/17 06:59:33;;;;;;;34.55;15.07;;;;;;;-1.67;96.26;96651.22;5025516;28;20065;-73
2021/01/17 07:02:17;;;;;;;37.42;15.95;;;;;;;-1.67;96.22;96654.69;5022631;28;20046;-70
2021/01/17 07:04:56;;;;;;;35.85;16.25;;;;;;;-1.67;95.99;96662.75;5021987;28;20095;-68
2021/01/17 07:07:27;;;;;;;36.33;16.00;;;;;;;-1.73;96.02;96661.19;5015318;28;20342;-69
2021/01/17 07:10:01;;;;;;;35.25;13.63;;;;;;;-1.72;95.73;96657.44;5022498;28;20037;-66
2021/01/17 07:12:47;;;;;;;40.22;15.98;;;;;;;-1.75;96.04;96668.75;5016518;28;20041;-66
2021/01/17 07:15:13;;;;;;;34.83;14.85;;;;;;;-1.69;95.92;96666.78;5018011;28;20049;-67
2021/01/17 07:17:42;;;;;;;36.33;14.85;;;;;;;-1.70;95.62;96668.69;5022861;28;20043;-67
2021/01/17 07:20:13;;;;;;;37.05;15.15;;;;;;;-1.42;96.89;96666.97;5016527;28;20050;-66
2021/01/17 07:22:42;;;;;;;35.03;15.48;;;;;;;-1.40;96.96;96677.44;5019115;28;20871;-67
2021/01/17 07:25:09;;;;;;;34.13;15.02;;;;;;;-1.38;96.27;96675.25;5017373;28;20076;-71
2021/01/17 07:27:54;;;;;;;32.65;15.07;;;;;;;-1.33;96.65;96683.25;5021957;28;20052;-67
2021/01/17 07:30:40;;;;;;;31.73;14.27;;;;;;;-1.26;96.38;96672.13;5015641;28;20107;-74
2021/01/17 07:33:08;;;;;;;34.42;14.10;;;;;;;-1.20;95.83;96677.13;5002077;28;20053;-67
2021/01/17 07:35:47;;;;;;;32.85;15.45;;;;;;;-1.11;95.20;96676.50;5022404;28;20056;-69
2021/01/17 07:38:19;;;;;;;26.13;13.07;;;;;;;-1.16;94.23;96674.66;5016660;28;20041;-68
2021/01/17 07:41:01;;;;;;;31.15;13.18;;;;;;;-1.18;94.09;96687.59;5021963;28;20045;-74
2021/01/17 07:43:31;;;;;;;27.88;13.32;;;;;;;-1.26;94.08;96686.38;5016304;28;20070;-68
2021/01/17 07:46:00;;;;;;;26.30;12.82;;;;;;;-1.25;93.91;96687.97;5021918;28;20512;-66
2021/01/17 07:48:26;;;;;;;25.67;11.98;;;;;;;-1.16;93.81;96694.28;5013253;28;20048;-69
2021/01/17 07:50:53;;;;;;;25.17;11.50;;;;;;;-1.05;93.54;96686.84;5021659;28;20045;-67
2021/01/17 07:53:39;;;;;;;27.75;12.63;;;;;;;-1.04;93.60;96688.47;4981675;28;20038;-68
2021/01/17 07:56:31;;;;;;;21.83;11.70;;;;;;;-1.04;93.58;96693.84;5017034;28;20128;-72
2021/01/17 07:58:59;;;;;;;23.08;11.27;;;;;;;-0.99;93.62;96696.47;5021706;28;20042;-68
2021/01/17 08:01:30;;;;;;;24.38;11.32;;;;;;;-0.98;93.59;96699.94;5014812;28;20137;-68
2021/01/17 08:04:16;;;;;;;21.67;10.60;;;;;;;-0.82;93.48;96697.81;5026662;28;20406;-70
2021/01/17 08:06:42;;;;;;;22.05;9.82;;;;;;;-0.84;93.25;96694.63;5008067;28;20495;-69
2021/01/17 08:09:18;;;;;;;17.52;9.30;;;;;;;-0.82;93.56;96701.31;5017933;28;20052;-70
2021/01/17 08:11:57;;;;;;;17.42;9.63;;;;;;;-0.57;93.26;96703.91;5020388;28;20138;-69
2021/01/17 08:14:33;;;;;;;22.48;10.65;;;;;;;-0.61;93.24;96698.31;5016172;28;20540;-68
2021/01/17 08:17:04;;;;;;;21.70;10.07;;;;;;;-0.40;92.97;96698.75;5021615;28;20124;-70
2021/01/17 08:19:56;;;;;;;20.85;9.98;;;;;;;-0.49;92.72;96695.13;5020717;28;20048;-68
2021/01/17 08:22:22;;;;;;;14.27;6.85;;;;;;;-0.46;92.58;96695.34;4999904;28;20041;-69
2021/01/17 08:25:05;;;;;;;15.95;7.85;;;;;;;-0.13;92.45;96699.88;5021573;28;20045;-69
2021/01/17 08:27:35;;;;;;;14.15;7.32;;;;;;;-0.07;91.94;96698.72;5021579;28;20052;-69
2021/01/17 08:30:00;;;;;;;11.55;7.22;;;;;;;-0.04;91.83;96690.84;5021688;28;20049;-68
2021/01/17 08:32:38;;;;;;;10.77;6.40;;;;;;;0.13;91.20;96698.31;5014489;28;20368;-69
2021/01/17 08:35:25;;;;;;;15.10;7.68;;;;;;;0.17;91.02;96706.59;4998642;28;20045;-70
2021/01/17 08:38:08;;;;;;;15.32;7.57;;;;;;;0.35;90.47;96711.09;5034152;28;20041;-70
2021/01/17 08:40:34;;;;;;;13.20;7.30;;;;;;;0.46;88.87;96710.88;5019653;28;20069;-71
2021/01/17 08:43:00;;;;;;;14.82;8.38;;;;;;;0.56;89.38;96710.69;5020248;28;20118;-69
2021/01/17 08:45:25;;;;;;;14.90;7.95;;;;;;;0.69;87.92;96720.66;5015712;28;20214;-70
2021/01/17 08:47:56;;;;;;;14.15;7.68;;;;;;;0.57;87.58;96713.06;5016321;28;20169;-69
2021/01/17 08:50:34;;;;;;;16.55;9.27;;;;;;;0.49;87.70;96710.28;5017000;28;20497;-70
2021/01/17 08:53:09;;;;;;;14.13;7.47;;;;;;;0.44;87.61;96718.47;5020303;28;20199;-70
2021/01/17 08:55:39;;;;;;;11.98;7.20;;;;;;;0.36;88.80;96720.78;5002274;28;20042;-70
2021/01/17 08:58:05;;;;;;;12.00;5.70;;;;;;;0.33;89.17;96717.88;4997901;28;20105;-67
2021/01/17 09:00:49;;;;;;;12.73;6.97;;;;;;;0.54;89.75;96719.06;5018281;28;20049;-69
2021/01/17 09:03:42;;;;;;;12.60;6.97;;;;;;;0.65;88.69;96719.66;5012205;28;20045;-68
2021/01/17 09:06:19;;;;;;;10.60;6.15;;;;;;;0.83;89.39;96727.91;5015002;28;20033;-71
2021/01/17 09:08:47;;;;;;;10.90;6.32;;;;;;;0.86;88.22;96724.59;5021025;28;20095;-70
2021/01/17 09:11:28;;;;;;;9.82;5.57;;;;;;;0.85;87.43;96726.50;5014781;28;20050;-70
2021/01/17 09:14:09;;;;;;;10.43;5.82;;;;;;;0.95;87.65;96734.38;5020231;28;20152;-69
2021/01/17 09:16:38;;;;;;;13.70;6.03;;;;;;;1.07;87.83;96735.75;5019547;28;20549;-69
2021/01/17 09:19:07;;;;;;;10.95;5.50;;;;;;;1.14;87.21;96739.63;4999914;28;20064;-71
2021/01/17 09:21:33;;;;;;;12.30;6.13;;;;;;;1.00;86.74;96746.16;5020425;28;20049;-68
2021/01/17 09:24:05;;;;;;;11.52;6.30;;;;;;;0.95;86.78;96741.66;5020660;28;20037;-70
2021/01/17 09:26:31;;;;;;;12.60;6.68;;;;;;;0.94;87.50;96748.97;5020930;28;20071;-69
2021/01/17 09:28:57;;;;;;;9.10;5.30;;;;;;;0.93;87.67;96751.97;5019889;28;20486;-70
2021/01/17 09:31:24;;;;;;;9.52;5.18;;;;;;;0.89;87.14;96751.75;5014494;28;20176;-72
2021/01/17 09:33:49;;;;;;;11.38;5.47;;;;;;;1.00;87.16;96749.66;5019730;28;20098;-70
2021/01/17 09:36:24;;;;;;;9.85;5.20;;;;;;;0.99;86.87;96750.75;5013104;28;20045;-68
2021/01/17 09:38:50;;;;;;;9.02;5.55;;;;;;;1.16;86.85;96765.50;5019379;28;20049;-71
2021/01/17 09:41:25;;;;;;;12.80;7.18;;;;;;;0.84;87.49;96765.34;5014365;28;20124;-70
2021/01/17 09:43:53;;;;;;;9.55;5.30;;;;;;;0.85;87.78;96769.66;5018842;28;20036;-71
2021/01/17 09:46:24;;;;;;;8.82;4.70;;;;;;;0.52;89.25;96761.69;5012293;28;20045;-70
2021/01/17 09:48:59;;;;;;;9.25;4.93;;;;;;;0.63;88.84;96769.56;5019747;28;20099;-71
2021/01/17 09:51:28;;;;;;;7.78;4.65;;;;;;;0.80;88.44;96772.44;5013637;28;20324;-68
2021/01/17 09:53:55;;;;;;;7.63;4.70;;;;;;;0.68;88.65;96770.25;5018977;28;20084;-68
2021/01/17 09:56:21;;;;;;;10.25;5.05;;;;;;;0.76;88.59;96774.94;5011662;28;20518;-71
2021/01/17 09:58:47;;;;;;;11.13;6.20;;;;;;;1.00;88.34;96773.91;5019765;28;20044;-71
2021/01/17 10:01:20;;;;;;;13.05;6.85;;;;;;;1.02;87.65;96777.09;5016892;28;20084;-69
2021/01/17 10:03:49;;;;;;;14.88;6.65;;;;;;;1.05;87.27;96773.03;5022754;28;20045;-69
2021/01/17 10:06:17;;;;;;;13.47;7.07;;;;;;;0.90;87.83;96780.34;4995904;28;20136;-69
2021/01/17 10:08:46;;;;;;;10.05;5.22;;;;;;;1.04;88.17;96779.50;5020110;28;20042;-69
2021/01/17 10:11:11;;;;;;;8.77;4.20;;;;;;;1.37;86.34;96782.84;5010720;28;20152;-68
2021/01/17 10:13:46;;;;;;;5.72;3.67;;;;;;;1.32;86.29;96781.03;5018130;28;20562;-69
2021/01/17 10:16:11;;;;;;;5.07;3.35;;;;;;;0.93;87.02;96789.72;5014551;28;20042;-70
2021/01/17 10:18:37;;;;;;;5.90;4.13;;;;;;;0.82;87.77;96782.94;5019537;28;20494;-69
2021/01/17 10:21:02;;;;;;;6.28;3.05;;;;;;;1.00;87.53;96786.63;5017379;28;20184;-69
2021/01/17 10:23:31;;;;;;;15.45;5.75;;;;;;;0.88;88.36;96787.94;5021849;28;20072;-70
2021/01/17 10:25:57;;;;;;;9.25;4.10;;;;;;;0.46;89.16;96784.44;5037662;28;20048;-70
2021/01/17 10:28:26;;;;;;;4.00;2.63;;;;;;;0.65;89.02;96784.34;5029936;28;20151;-70
2021/01/17 10:31:00;;;;;;;5.22;2.92;;;;;;;0.82;88.26;96791.81;5022914;28;20080;-70
2021/01/17 10:33:30;;;;;;;10.48;4.53;;;;;;;0.69;88.20;96782.66;5014514;28;20041;-71
2021/01/17 10:35:56;;;;;;;7.85;3.80;;;;;;;0.50;89.21;96784.63;5019908;28;20118;-70
2021/01/17 10:38:22;;;;;;;3.30;2.60;;;;;;;0.48;89.46;96793.03;5010287;28;20651;-71
2021/01/17 10:40:48;;;;;;;5.55;3.28;;;;;;;0.38;90.07;96785.16;5019053;28;20083;-70
2021/01/17 10:46:37;;;;;;;7.03;3.70;;;;;;;0.33;91.34;96787.94;5008839;28;20045;-70
2021/01/17 10:49:12;;;;;;;5.22;3.25;;;;;;;0.43;91.23;96789.63;5010985;28;20045;-68
2021/01/17 10:51:51;;;;;;;4.93;3.45;;;;;;;0.50;91.36;96798.91;5018729;28;20413;-71
2021/01/17 10:54:24;;;;;;;7.00;4.40;;;;;;;0.42;91.99;96791.53;4979363;28;20528;-69
2021/01/17 10:56:52;;;;;;;9.65;4.32;;;;;;;0.49;91.51;96789.25;5018874;28;20049;-71
2021/01/17 10:59:23;;;;;;;5.97;3.22;;;;;;;0.35;91.39;96789.22;5011288;28;20045;-69
2021/01/17 11:01:48;;;;;;;4.00;2.90;;;;;;;0.44;91.43;96778.56;5018255;28;20463;-70
2021/01/17 11:04:15;;;;;;;6.10;3.45;;;;;;;0.38;91.29;96794.03;5011803;28;20124;-71
2021/01/17 11:06:45;;;;;;;4.85;3.63;;;;;;;0.44;91.28;96788.53;5018021;28;20188;-70
2021/01/17 11:09:15;;;;;;;4.90;3.42;;;;;;;0.51;90.77;96784.34;5013921;28;20059;-71
2021/01/17 11:11:43;;;;;;;4.70;3.65;;;;;;;0.55;91.75;96785.34;5017826;28;20510;-70
2021/01/17 11:14:09;;;;;;;4.72;3.28;;;;;;;0.62;90.81;96786.84;5012907;28;20099;-71
2021/01/17 11:16:41;;;;;;;4.40;3.42;;;;;;;0.64;90.08;96785.44;5019127;28;20045;-69
2021/01/17 11:19:09;;;;;;;4.70;2.80;;;;;;;0.70;90.28;96780.75;4994792;28;20122;-69
2021/01/17 11:21:35;;;;;;;5.30;3.33;;;;;;;0.76;90.13;96788.44;4999598;28;20045;-70
2021/01/17 11:24:01;;;;;;;6.20;3.83;;;;;;;1.01;89.71;96788.19;5021350;28;20039;-70
2021/01/17 11:26:27;;;;;;;6.95;3.65;;;;;;;1.01;89.27;96788.19;5014883;28;20638;-70
2021/01/17 11:28:57;;;;;;;4.68;2.80;;;;;;;1.10;88.98;96787.19;5004073;28;20033;-69
2021/01/17 11:31:23;;;;;;;6.28;3.08;;;;;;;1.32;88.57;96788.34;5015096;28;20266;-70
2021/01/17 11:33:50;;;;;;;4.20;2.85;;;;;;;1.17;87.86;96784.09;5022204;28;20043;-69
2021/01/17 11:36:20;;;;;;;4.10;2.60;;;;;;;0.99;88.39;96788.53;5017318;28;20042;-69
2021/01/17 11:38:47;;;;;;;5.10;3.00;;;;;;;1.13;88.50;96789.28;5004830;28;20053;-70